sensor_id;sensor_type;location;lat;lon;timestamp;temperature;humidity
81202;DHT22;71068;47.662;-2.750;2024-03-06T00:00:14;7.70;73.40
81202;DHT22;71068;47.662;-2.750;2024-03-06T00:03:04;7.70;73.70
81202;DHT22;71068;47.662;-2.750;2024-03-06T00:05:52;7.80;73.60
81202;DHT22;71068;47.662;-2.750;2024-03-06T00:08:38;7.80;73.20
81202;DHT22;71068;47.662;-2.750;2024-03-06T00:11:25;8.00;73.10
81202;DHT22;71068;47.662;-2.750;2024-03-06T00:14:13;7.90;73.00
81202;DHT22;71068;47.662;-2.750;2024-03-06T00:16:59;7.90;73.00
81202;DHT22;71068;47.662;-2.750;2024-03-06T00:19:47;8.00;72.70
81202;DHT22;71068;47.662;-2.750;2024-03-06T00:22:33;8.10;72.50
81202;DHT22;71068;47.662;-2.750;2024-03-06T00:25:20;8.20;72.30
81202;DHT22;71068;47.662;-2.750;2024-03-06T00:28:06;8.10;72.10
81202;DHT22;71068;47.662;-2.750;2024-03-06T00:30:53;8.10;72.00
81202;DHT22;71068;47.662;-2.750;2024-03-06T00:33:42;8.10;71.90
81202;DHT22;71068;47.662;-2.750;2024-03-06T00:36:28;8.00;72.40
81202;DHT22;71068;47.662;-2.750;2024-03-06T00:39:14;8.00;72.40
81202;DHT22;71068;47.662;-2.750;2024-03-06T00:42:02;7.90;72.60
81202;DHT22;71068;47.662;-2.750;2024-03-06T00:44:48;7.80;72.60
81202;DHT22;71068;47.662;-2.750;2024-03-06T00:47:35;7.90;72.60
81202;DHT22;71068;47.662;-2.750;2024-03-06T00:50:21;7.80;72.80
81202;DHT22;71068;47.662;-2.750;2024-03-06T00:53:07;7.70;73.00
81202;DHT22;71068;47.662;-2.750;2024-03-06T00:55:54;7.70;72.80
81202;DHT22;71068;47.662;-2.750;2024-03-06T00:58:40;7.70;73.00
81202;DHT22;71068;47.662;-2.750;2024-03-06T01:01:27;7.60;72.90
81202;DHT22;71068;47.662;-2.750;2024-03-06T01:04:15;7.50;73.20
81202;DHT22;71068;47.662;-2.750;2024-03-06T01:07:01;7.40;73.20
81202;DHT22;71068;47.662;-2.750;2024-03-06T01:09:48;7.50;73.40
81202;DHT22;71068;47.662;-2.750;2024-03-06T01:12:35;7.60;73.20
81202;DHT22;71068;47.662;-2.750;2024-03-06T01:15:22;7.50;73.20
81202;DHT22;71068;47.662;-2.750;2024-03-06T01:18:08;7.50;73.20
81202;DHT22;71068;47.662;-2.750;2024-03-06T01:20:56;7.60;72.90
81202;DHT22;71068;47.662;-2.750;2024-03-06T01:23:42;7.50;72.60
81202;DHT22;71068;47.662;-2.750;2024-03-06T01:26:29;7.50;72.50
81202;DHT22;71068;47.662;-2.750;2024-03-06T01:29:17;7.50;72.30
81202;DHT22;71068;47.662;-2.750;2024-03-06T01:32:04;7.50;72.20
81202;DHT22;71068;47.662;-2.750;2024-03-06T01:34:51;7.50;72.20
81202;DHT22;71068;47.662;-2.750;2024-03-06T01:37:37;7.60;72.20
81202;DHT22;71068;47.662;-2.750;2024-03-06T01:40:23;7.50;72.20
81202;DHT22;71068;47.662;-2.750;2024-03-06T01:43:19;7.50;72.40
81202;DHT22;71068;47.662;-2.750;2024-03-06T01:46:06;7.60;72.50
81202;DHT22;71068;47.662;-2.750;2024-03-06T01:48:53;7.50;72.60
81202;DHT22;71068;47.662;-2.750;2024-03-06T01:51:40;7.50;72.70
81202;DHT22;71068;47.662;-2.750;2024-03-06T01:54:27;7.50;73.00
81202;DHT22;71068;47.662;-2.750;2024-03-06T01:57:15;7.30;73.10
81202;DHT22;71068;47.662;-2.750;2024-03-06T02:00:03;7.30;73.30
81202;DHT22;71068;47.662;-2.750;2024-03-06T02:02:50;7.30;73.50
81202;DHT22;71068;47.662;-2.750;2024-03-06T02:05:37;7.20;73.80
81202;DHT22;71068;47.662;-2.750;2024-03-06T02:08:23;7.10;74.10
81202;DHT22;71068;47.662;-2.750;2024-03-06T02:11:12;7.00;74.30
81202;DHT22;71068;47.662;-2.750;2024-03-06T02:14:04;6.90;74.30
81202;DHT22;71068;47.662;-2.750;2024-03-06T02:16:55;7.00;74.30
81202;DHT22;71068;47.662;-2.750;2024-03-06T02:19:43;7.00;74.50
81202;DHT22;71068;47.662;-2.750;2024-03-06T02:22:37;7.00;74.40
81202;DHT22;71068;47.662;-2.750;2024-03-06T02:25:24;7.20;74.50
81202;DHT22;71068;47.662;-2.750;2024-03-06T02:28:11;7.10;74.30
81202;DHT22;71068;47.662;-2.750;2024-03-06T02:30:57;7.00;74.30
81202;DHT22;71068;47.662;-2.750;2024-03-06T02:33:44;7.00;74.30
81202;DHT22;71068;47.662;-2.750;2024-03-06T02:36:30;7.00;74.80
81202;DHT22;71068;47.662;-2.750;2024-03-06T02:39:18;7.10;74.80
81202;DHT22;71068;47.662;-2.750;2024-03-06T02:42:05;7.10;74.70
81202;DHT22;71068;47.662;-2.750;2024-03-06T02:44:57;7.00;74.50
81202;DHT22;71068;47.662;-2.750;2024-03-06T02:47:45;7.00;74.70
81202;DHT22;71068;47.662;-2.750;2024-03-06T02:50:31;7.10;74.50
81202;DHT22;71068;47.662;-2.750;2024-03-06T02:53:19;7.00;74.50
81202;DHT22;71068;47.662;-2.750;2024-03-06T02:56:05;7.00;74.60
81202;DHT22;71068;47.662;-2.750;2024-03-06T02:58:54;6.90;74.70
81202;DHT22;71068;47.662;-2.750;2024-03-06T03:01:40;6.80;74.80
81202;DHT22;71068;47.662;-2.750;2024-03-06T03:04:27;6.80;74.80
81202;DHT22;71068;47.662;-2.750;2024-03-06T03:07:13;6.80;75.00
81202;DHT22;71068;47.662;-2.750;2024-03-06T03:10:03;6.90;75.00
81202;DHT22;71068;47.662;-2.750;2024-03-06T03:12:50;6.90;74.80
81202;DHT22;71068;47.662;-2.750;2024-03-06T03:15:39;7.00;74.50
81202;DHT22;71068;47.662;-2.750;2024-03-06T03:18:29;7.00;74.50
81202;DHT22;71068;47.662;-2.750;2024-03-06T03:21:18;6.90;74.50
81202;DHT22;71068;47.662;-2.750;2024-03-06T03:24:04;7.00;74.50
81202;DHT22;71068;47.662;-2.750;2024-03-06T03:26:52;7.10;74.60
81202;DHT22;71068;47.662;-2.750;2024-03-06T03:29:40;7.00;74.60
81202;DHT22;71068;47.662;-2.750;2024-03-06T03:32:28;7.00;74.80
81202;DHT22;71068;47.662;-2.750;2024-03-06T03:35:14;7.00;75.10
81202;DHT22;71068;47.662;-2.750;2024-03-06T03:38:00;6.90;75.20
81202;DHT22;71068;47.662;-2.750;2024-03-06T03:40:47;7.20;75.10
81202;DHT22;71068;47.662;-2.750;2024-03-06T03:43:35;7.20;74.90
81202;DHT22;71068;47.662;-2.750;2024-03-06T03:46:22;7.30;74.90
81202;DHT22;71068;47.662;-2.750;2024-03-06T03:49:10;7.40;74.70
81202;DHT22;71068;47.662;-2.750;2024-03-06T03:51:59;7.50;74.60
81202;DHT22;71068;47.662;-2.750;2024-03-06T03:54:45;7.50;74.30
81202;DHT22;71068;47.662;-2.750;2024-03-06T03:57:32;7.50;74.00
81202;DHT22;71068;47.662;-2.750;2024-03-06T04:00:19;7.50;74.10
81202;DHT22;71068;47.662;-2.750;2024-03-06T04:03:05;7.60;74.10
81202;DHT22;71068;47.662;-2.750;2024-03-06T04:05:52;7.50;74.00
81202;DHT22;71068;47.662;-2.750;2024-03-06T04:08:38;7.50;74.10
81202;DHT22;71068;47.662;-2.750;2024-03-06T04:11:26;7.50;74.30
81202;DHT22;71068;47.662;-2.750;2024-03-06T04:14:12;7.40;74.40
81202;DHT22;71068;47.662;-2.750;2024-03-06T04:16:59;7.50;74.50
81202;DHT22;71068;47.662;-2.750;2024-03-06T04:19:47;7.50;74.20
81202;DHT22;71068;47.662;-2.750;2024-03-06T04:22:34;7.50;74.00
81202;DHT22;71068;47.662;-2.750;2024-03-06T04:25:20;7.40;73.90
81202;DHT22;71068;47.662;-2.750;2024-03-06T04:28:06;7.40;74.10
81202;DHT22;71068;47.662;-2.750;2024-03-06T04:30:56;7.40;74.00
81202;DHT22;71068;47.662;-2.750;2024-03-06T04:33:43;7.40;74.10
81202;DHT22;71068;47.662;-2.750;2024-03-06T04:36:29;7.40;74.30
81202;DHT22;71068;47.662;-2.750;2024-03-06T04:39:16;7.20;74.50
81202;DHT22;71068;47.662;-2.750;2024-03-06T04:42:05;7.30;74.50
81202;DHT22;71068;47.662;-2.750;2024-03-06T04:44:52;7.30;74.60
81202;DHT22;71068;47.662;-2.750;2024-03-06T04:47:38;7.40;74.70
81202;DHT22;71068;47.662;-2.750;2024-03-06T04:50:25;7.50;74.50
81202;DHT22;71068;47.662;-2.750;2024-03-06T04:53:11;7.40;74.40
81202;DHT22;71068;47.662;-2.750;2024-03-06T04:55:59;7.40;74.30
81202;DHT22;71068;47.662;-2.750;2024-03-06T04:58:46;7.40;74.10
81202;DHT22;71068;47.662;-2.750;2024-03-06T05:01:32;7.50;74.10
81202;DHT22;71068;47.662;-2.750;2024-03-06T05:04:20;7.40;74.20
81202;DHT22;71068;47.662;-2.750;2024-03-06T05:07:07;7.50;74.30
81202;DHT22;71068;47.662;-2.750;2024-03-06T05:09:56;7.40;74.40
81202;DHT22;71068;47.662;-2.750;2024-03-06T05:12:46;7.40;74.40
81202;DHT22;71068;47.662;-2.750;2024-03-06T05:15:33;7.40;74.70
81202;DHT22;71068;47.662;-2.750;2024-03-06T05:18:19;7.30;74.70
81202;DHT22;71068;47.662;-2.750;2024-03-06T05:21:06;7.30;74.70
81202;DHT22;71068;47.662;-2.750;2024-03-06T05:23:52;7.30;74.60
81202;DHT22;71068;47.662;-2.750;2024-03-06T05:26:38;7.30;74.60
81202;DHT22;71068;47.662;-2.750;2024-03-06T05:29:24;7.30;74.50
81202;DHT22;71068;47.662;-2.750;2024-03-06T05:32:12;7.30;74.50
81202;DHT22;71068;47.662;-2.750;2024-03-06T05:35:01;7.30;74.60
81202;DHT22;71068;47.662;-2.750;2024-03-06T05:37:47;7.30;74.50
81202;DHT22;71068;47.662;-2.750;2024-03-06T05:40:35;7.20;74.40
81202;DHT22;71068;47.662;-2.750;2024-03-06T05:43:25;7.20;74.90
81202;DHT22;71068;47.662;-2.750;2024-03-06T05:46:12;7.30;75.20
81202;DHT22;71068;47.662;-2.750;2024-03-06T05:48:59;7.20;75.30
81202;DHT22;71068;47.662;-2.750;2024-03-06T05:51:45;7.30;75.50
81202;DHT22;71068;47.662;-2.750;2024-03-06T05:54:31;7.30;75.50
81202;DHT22;71068;47.662;-2.750;2024-03-06T05:57:19;7.50;75.50
81202;DHT22;71068;47.662;-2.750;2024-03-06T06:00:06;7.60;75.50
81202;DHT22;71068;47.662;-2.750;2024-03-06T06:02:58;7.60;75.50
81202;DHT22;71068;47.662;-2.750;2024-03-06T06:05:44;7.70;75.40
81202;DHT22;71068;47.662;-2.750;2024-03-06T06:08:31;7.80;75.40
81202;DHT22;71068;47.662;-2.750;2024-03-06T06:11:17;7.80;75.30
81202;DHT22;71068;47.662;-2.750;2024-03-06T06:14:03;7.90;75.50
81202;DHT22;71068;47.662;-2.750;2024-03-06T06:16:50;7.80;75.40
81202;DHT22;71068;47.662;-2.750;2024-03-06T06:19:36;8.00;75.40
81202;DHT22;71068;47.662;-2.750;2024-03-06T06:22:23;8.00;75.20
81202;DHT22;71068;47.662;-2.750;2024-03-06T06:25:12;8.00;75.30
81202;DHT22;71068;47.662;-2.750;2024-03-06T06:27:58;8.00;75.50
81202;DHT22;71068;47.662;-2.750;2024-03-06T06:30:46;8.10;75.50
81202;DHT22;71068;47.662;-2.750;2024-03-06T06:33:32;8.20;75.60
81202;DHT22;71068;47.662;-2.750;2024-03-06T06:36:18;8.20;75.50
81202;DHT22;71068;47.662;-2.750;2024-03-06T06:39:05;8.30;75.60
81202;DHT22;71068;47.662;-2.750;2024-03-06T06:41:54;8.30;75.50
81202;DHT22;71068;47.662;-2.750;2024-03-06T06:44:40;8.50;75.40
81202;DHT22;71068;47.662;-2.750;2024-03-06T06:47:28;8.50;75.50
81202;DHT22;71068;47.662;-2.750;2024-03-06T06:50:16;8.40;75.60
81202;DHT22;71068;47.662;-2.750;2024-03-06T06:53:03;8.50;75.70
81202;DHT22;71068;47.662;-2.750;2024-03-06T06:55:49;8.40;75.80
81202;DHT22;71068;47.662;-2.750;2024-03-06T06:58:38;8.50;75.90
81202;DHT22;71068;47.662;-2.750;2024-03-06T07:01:28;8.70;76.10
81202;DHT22;71068;47.662;-2.750;2024-03-06T07:04:14;8.70;76.00
81202;DHT22;71068;47.662;-2.750;2024-03-06T07:07:05;8.60;76.10
81202;DHT22;71068;47.662;-2.750;2024-03-06T07:09:51;8.70;76.20
81202;DHT22;71068;47.662;-2.750;2024-03-06T07:12:39;8.70;76.20
81202;DHT22;71068;47.662;-2.750;2024-03-06T07:15:27;8.70;76.20
81202;DHT22;71068;47.662;-2.750;2024-03-06T07:18:13;8.80;76.40
81202;DHT22;71068;47.662;-2.750;2024-03-06T07:21:28;8.90;76.30
81202;DHT22;71068;47.662;-2.750;2024-03-06T07:27:31;9.10;75.80
81202;DHT22;71068;47.662;-2.750;2024-03-06T07:30:20;9.20;75.80
81202;DHT22;71068;47.662;-2.750;2024-03-06T07:33:07;9.20;75.70
81202;DHT22;71068;47.662;-2.750;2024-03-06T07:35:54;9.20;75.70
81202;DHT22;71068;47.662;-2.750;2024-03-06T07:38:49;9.40;75.50
81202;DHT22;71068;47.662;-2.750;2024-03-06T07:41:35;9.50;75.50
81202;DHT22;71068;47.662;-2.750;2024-03-06T07:44:21;9.50;75.70
81202;DHT22;71068;47.662;-2.750;2024-03-06T07:47:08;9.40;75.80
81202;DHT22;71068;47.662;-2.750;2024-03-06T07:49:57;9.40;76.00
81202;DHT22;71068;47.662;-2.750;2024-03-06T07:52:47;9.50;76.00
81202;DHT22;71068;47.662;-2.750;2024-03-06T07:55:35;9.50;76.20
81202;DHT22;71068;47.662;-2.750;2024-03-06T07:58:21;9.50;76.00
81202;DHT22;71068;47.662;-2.750;2024-03-06T08:01:07;9.50;76.10
81202;DHT22;71068;47.662;-2.750;2024-03-06T08:03:56;9.60;75.90
81202;DHT22;71068;47.662;-2.750;2024-03-06T08:06:42;9.70;76.50
81202;DHT22;71068;47.662;-2.750;2024-03-06T08:09:28;9.70;76.20
81202;DHT22;71068;47.662;-2.750;2024-03-06T08:12:15;9.70;76.50
81202;DHT22;71068;47.662;-2.750;2024-03-06T08:15:01;9.80;76.30
81202;DHT22;71068;47.662;-2.750;2024-03-06T08:17:50;9.90;76.40
81202;DHT22;71068;47.662;-2.750;2024-03-06T08:20:38;9.90;76.20
81202;DHT22;71068;47.662;-2.750;2024-03-06T08:23:26;10.00;76.00
81202;DHT22;71068;47.662;-2.750;2024-03-06T08:26:15;10.10;75.80
81202;DHT22;71068;47.662;-2.750;2024-03-06T08:29:02;10.10;76.40
81202;DHT22;71068;47.662;-2.750;2024-03-06T08:31:49;10.10;76.40
81202;DHT22;71068;47.662;-2.750;2024-03-06T08:34:36;10.20;76.30
81202;DHT22;71068;47.662;-2.750;2024-03-06T08:37:23;10.10;76.50
81202;DHT22;71068;47.662;-2.750;2024-03-06T08:40:10;10.10;76.80
81202;DHT22;71068;47.662;-2.750;2024-03-06T08:43:00;10.20;76.80
81202;DHT22;71068;47.662;-2.750;2024-03-06T08:45:47;10.00;77.50
81202;DHT22;71068;47.662;-2.750;2024-03-06T08:48:35;10.10;77.70
81202;DHT22;71068;47.662;-2.750;2024-03-06T08:51:23;10.10;77.50
81202;DHT22;71068;47.662;-2.750;2024-03-06T08:54:11;10.20;77.80
81202;DHT22;71068;47.662;-2.750;2024-03-06T08:56:58;10.30;77.90
81202;DHT22;71068;47.662;-2.750;2024-03-06T08:59:47;10.40;77.60
81202;DHT22;71068;47.662;-2.750;2024-03-06T09:02:34;10.40;77.30
81202;DHT22;71068;47.662;-2.750;2024-03-06T09:05:21;10.60;77.50
81202;DHT22;71068;47.662;-2.750;2024-03-06T09:08:07;10.60;77.30
81202;DHT22;71068;47.662;-2.750;2024-03-06T09:11:04;10.80;77.20
81202;DHT22;71068;47.662;-2.750;2024-03-06T09:13:51;10.80;76.90
81202;DHT22;71068;47.662;-2.750;2024-03-06T09:16:38;11.00;77.10
81202;DHT22;71068;47.662;-2.750;2024-03-06T09:19:25;11.10;77.10
81202;DHT22;71068;47.662;-2.750;2024-03-06T09:22:12;11.20;76.90
81202;DHT22;71068;47.662;-2.750;2024-03-06T09:25:00;11.10;77.40
81202;DHT22;71068;47.662;-2.750;2024-03-06T09:27:46;11.00;77.60
81202;DHT22;71068;47.662;-2.750;2024-03-06T09:30:32;11.00;77.60
81202;DHT22;71068;47.662;-2.750;2024-03-06T09:33:21;11.10;77.70
81202;DHT22;71068;47.662;-2.750;2024-03-06T09:36:12;11.10;77.50
81202;DHT22;71068;47.662;-2.750;2024-03-06T09:38:59;11.20;77.80
81202;DHT22;71068;47.662;-2.750;2024-03-06T09:41:50;11.20;77.80
81202;DHT22;71068;47.662;-2.750;2024-03-06T09:44:36;11.20;78.10
81202;DHT22;71068;47.662;-2.750;2024-03-06T09:47:23;11.30;78.20
81202;DHT22;71068;47.662;-2.750;2024-03-06T09:50:10;11.40;78.40
81202;DHT22;71068;47.662;-2.750;2024-03-06T09:53:00;11.50;78.50
81202;DHT22;71068;47.662;-2.750;2024-03-06T09:55:48;11.60;78.10
81202;DHT22;71068;47.662;-2.750;2024-03-06T09:58:36;11.70;78.00
81202;DHT22;71068;47.662;-2.750;2024-03-06T10:01:23;11.70;78.00
81202;DHT22;71068;47.662;-2.750;2024-03-06T10:04:23;11.70;78.20
81202;DHT22;71068;47.662;-2.750;2024-03-06T10:07:12;11.70;78.30
81202;DHT22;71068;47.662;-2.750;2024-03-06T10:09:59;11.50;78.80
81202;DHT22;71068;47.662;-2.750;2024-03-06T10:12:49;11.60;79.20
81202;DHT22;71068;47.662;-2.750;2024-03-06T10:15:36;11.60;79.20
81202;DHT22;71068;47.662;-2.750;2024-03-06T10:18:26;11.70;79.60
81202;DHT22;71068;47.662;-2.750;2024-03-06T10:21:14;11.70;79.60
81202;DHT22;71068;47.662;-2.750;2024-03-06T10:24:04;11.80;79.10
81202;DHT22;71068;47.662;-2.750;2024-03-06T10:26:51;11.80;80.00
81202;DHT22;71068;47.662;-2.750;2024-03-06T10:29:40;11.80;80.10
81202;DHT22;71068;47.662;-2.750;2024-03-06T10:32:26;11.70;80.60
81202;DHT22;71068;47.662;-2.750;2024-03-06T10:35:18;11.90;80.50
81202;DHT22;71068;47.662;-2.750;2024-03-06T10:38:07;12.00;79.90
81202;DHT22;71068;47.662;-2.750;2024-03-06T10:40:54;12.10;79.90
81202;DHT22;71068;47.662;-2.750;2024-03-06T10:43:47;12.00;80.00
81202;DHT22;71068;47.662;-2.750;2024-03-06T10:46:36;11.90;80.30
81202;DHT22;71068;47.662;-2.750;2024-03-06T10:49:25;11.90;80.50
81202;DHT22;71068;47.662;-2.750;2024-03-06T10:52:14;12.00;80.10
81202;DHT22;71068;47.662;-2.750;2024-03-06T10:55:03;12.00;80.90
81202;DHT22;71068;47.662;-2.750;2024-03-06T10:57:52;12.10;81.50
81202;DHT22;71068;47.662;-2.750;2024-03-06T11:00:45;12.20;81.60
81202;DHT22;71068;47.662;-2.750;2024-03-06T11:03:40;12.30;81.10
81202;DHT22;71068;47.662;-2.750;2024-03-06T11:06:27;12.30;81.00
81202;DHT22;71068;47.662;-2.750;2024-03-06T11:09:14;12.20;80.90
81202;DHT22;71068;47.662;-2.750;2024-03-06T11:12:11;12.10;81.10
81202;DHT22;71068;47.662;-2.750;2024-03-06T11:14:57;12.20;80.80
81202;DHT22;71068;47.662;-2.750;2024-03-06T11:17:45;12.20;80.70
81202;DHT22;71068;47.662;-2.750;2024-03-06T11:20:33;12.10;81.20
81202;DHT22;71068;47.662;-2.750;2024-03-06T11:23:23;12.10;82.00
81202;DHT22;71068;47.662;-2.750;2024-03-06T11:26:11;12.10;81.90
81202;DHT22;71068;47.662;-2.750;2024-03-06T11:29:00;12.10;82.40
81202;DHT22;71068;47.662;-2.750;2024-03-06T11:32:06;12.10;82.20
81202;DHT22;71068;47.662;-2.750;2024-03-06T11:34:54;12.10;82.70
81202;DHT22;71068;47.662;-2.750;2024-03-06T11:37:46;12.10;83.00
81202;DHT22;71068;47.662;-2.750;2024-03-06T11:40:32;12.10;82.30
81202;DHT22;71068;47.662;-2.750;2024-03-06T11:43:30;12.20;82.30
81202;DHT22;71068;47.662;-2.750;2024-03-06T11:46:17;12.20;82.60
81202;DHT22;71068;47.662;-2.750;2024-03-06T11:49:05;12.30;82.90
81202;DHT22;71068;47.662;-2.750;2024-03-06T11:52:07;12.20;82.90
81202;DHT22;71068;47.662;-2.750;2024-03-06T11:54:55;12.30;82.80
81202;DHT22;71068;47.662;-2.750;2024-03-06T11:57:46;12.30;82.90
81202;DHT22;71068;47.662;-2.750;2024-03-06T12:00:32;12.30;83.00
81202;DHT22;71068;47.662;-2.750;2024-03-06T12:03:19;12.30;83.00
81202;DHT22;71068;47.662;-2.750;2024-03-06T12:06:06;12.40;82.90
81202;DHT22;71068;47.662;-2.750;2024-03-06T12:08:54;12.40;82.80
81202;DHT22;71068;47.662;-2.750;2024-03-06T12:11:43;12.40;83.00
81202;DHT22;71068;47.662;-2.750;2024-03-06T12:14:30;12.50;82.80
81202;DHT22;71068;47.662;-2.750;2024-03-06T12:17:17;12.70;82.60
81202;DHT22;71068;47.662;-2.750;2024-03-06T12:20:04;12.60;82.90
81202;DHT22;71068;47.662;-2.750;2024-03-06T12:22:53;12.60;83.20
81202;DHT22;71068;47.662;-2.750;2024-03-06T12:25:39;12.60;82.80
81202;DHT22;71068;47.662;-2.750;2024-03-06T12:28:27;12.70;82.90
81202;DHT22;71068;47.662;-2.750;2024-03-06T12:31:14;12.70;82.70
81202;DHT22;71068;47.662;-2.750;2024-03-06T12:34:14;12.70;82.60
81202;DHT22;71068;47.662;-2.750;2024-03-06T12:37:17;12.80;82.50
81202;DHT22;71068;47.662;-2.750;2024-03-06T12:40:05;12.80;82.30
81202;DHT22;71068;47.662;-2.750;2024-03-06T12:43:01;12.70;82.30
81202;DHT22;71068;47.662;-2.750;2024-03-06T12:45:48;12.80;82.20
81202;DHT22;71068;47.662;-2.750;2024-03-06T12:48:37;12.70;82.40
81202;DHT22;71068;47.662;-2.750;2024-03-06T12:51:24;12.70;82.40
81202;DHT22;71068;47.662;-2.750;2024-03-06T12:54:10;12.60;82.80
81202;DHT22;71068;47.662;-2.750;2024-03-06T12:56:57;12.60;82.30
81202;DHT22;71068;47.662;-2.750;2024-03-06T12:59:43;12.50;82.30
81202;DHT22;71068;47.662;-2.750;2024-03-06T13:02:29;12.60;82.50
81202;DHT22;71068;47.662;-2.750;2024-03-06T13:05:16;12.60;82.70
81202;DHT22;71068;47.662;-2.750;2024-03-06T13:08:02;12.60;82.80
81202;DHT22;71068;47.662;-2.750;2024-03-06T13:10:51;12.70;82.60
81202;DHT22;71068;47.662;-2.750;2024-03-06T13:13:45;12.70;82.40
81202;DHT22;71068;47.662;-2.750;2024-03-06T13:16:32;12.80;82.40
81202;DHT22;71068;47.662;-2.750;2024-03-06T13:19:18;12.60;82.70
81202;DHT22;71068;47.662;-2.750;2024-03-06T13:22:05;12.60;83.10
81202;DHT22;71068;47.662;-2.750;2024-03-06T13:24:52;12.60;83.00
81202;DHT22;71068;47.662;-2.750;2024-03-06T13:27:39;12.70;82.70
81202;DHT22;71068;47.662;-2.750;2024-03-06T13:30:25;12.70;82.60
81202;DHT22;71068;47.662;-2.750;2024-03-06T13:33:11;12.70;82.50
81202;DHT22;71068;47.662;-2.750;2024-03-06T13:35:58;12.80;82.20
81202;DHT22;71068;47.662;-2.750;2024-03-06T13:38:44;12.80;82.30
81202;DHT22;71068;47.662;-2.750;2024-03-06T13:41:32;12.80;82.00
81202;DHT22;71068;47.662;-2.750;2024-03-06T13:44:19;12.80;81.80
81202;DHT22;71068;47.662;-2.750;2024-03-06T13:47:07;12.70;82.00
81202;DHT22;71068;47.662;-2.750;2024-03-06T13:49:53;12.70;82.40
81202;DHT22;71068;47.662;-2.750;2024-03-06T13:52:41;12.70;82.60
81202;DHT22;71068;47.662;-2.750;2024-03-06T13:55:28;12.70;82.20
81202;DHT22;71068;47.662;-2.750;2024-03-06T13:58:17;12.80;81.90
81202;DHT22;71068;47.662;-2.750;2024-03-06T14:01:05;12.90;82.00
81202;DHT22;71068;47.662;-2.750;2024-03-06T14:03:53;12.80;81.80
81202;DHT22;71068;47.662;-2.750;2024-03-06T14:06:45;12.80;81.80
81202;DHT22;71068;47.662;-2.750;2024-03-06T14:09:35;12.80;82.20
81202;DHT22;71068;47.662;-2.750;2024-03-06T14:12:28;12.80;81.80
81202;DHT22;71068;47.662;-2.750;2024-03-06T14:15:18;12.80;81.80
81202;DHT22;71068;47.662;-2.750;2024-03-06T14:18:11;13.00;81.60
81202;DHT22;71068;47.662;-2.750;2024-03-06T14:20:57;13.00;81.70
81202;DHT22;71068;47.662;-2.750;2024-03-06T14:23:47;13.20;81.40
81202;DHT22;71068;47.662;-2.750;2024-03-06T14:26:33;13.10;81.20
81202;DHT22;71068;47.662;-2.750;2024-03-06T14:29:20;13.10;81.10
81202;DHT22;71068;47.662;-2.750;2024-03-06T14:32:06;13.10;81.00
81202;DHT22;71068;47.662;-2.750;2024-03-06T14:34:53;13.00;81.00
81202;DHT22;71068;47.662;-2.750;2024-03-06T14:37:46;13.00;81.50
81202;DHT22;71068;47.662;-2.750;2024-03-06T14:40:34;13.20;81.60
81202;DHT22;71068;47.662;-2.750;2024-03-06T14:43:22;13.30;81.10
81202;DHT22;71068;47.662;-2.750;2024-03-06T14:46:08;13.30;80.80
81202;DHT22;71068;47.662;-2.750;2024-03-06T14:48:54;13.30;80.40
81202;DHT22;71068;47.662;-2.750;2024-03-06T14:51:44;13.20;80.70
81202;DHT22;71068;47.662;-2.750;2024-03-06T14:54:30;13.20;80.70
81202;DHT22;71068;47.662;-2.750;2024-03-06T14:57:17;13.20;80.70
81202;DHT22;71068;47.662;-2.750;2024-03-06T15:00:06;13.30;80.50
81202;DHT22;71068;47.662;-2.750;2024-03-06T15:02:53;13.30;80.20
81202;DHT22;71068;47.662;-2.750;2024-03-06T15:05:45;13.20;80.40
81202;DHT22;71068;47.662;-2.750;2024-03-06T15:08:37;13.10;80.80
81202;DHT22;71068;47.662;-2.750;2024-03-06T15:11:24;13.20;81.00
81202;DHT22;71068;47.662;-2.750;2024-03-06T15:14:10;13.20;80.60
81202;DHT22;71068;47.662;-2.750;2024-03-06T15:16:56;13.40;80.20
81202;DHT22;71068;47.662;-2.750;2024-03-06T15:19:43;13.40;80.20
81202;DHT22;71068;47.662;-2.750;2024-03-06T15:22:30;13.50;80.10
81202;DHT22;71068;47.662;-2.750;2024-03-06T15:25:17;13.70;80.10
81202;DHT22;71068;47.662;-2.750;2024-03-06T15:28:04;13.80;79.30
81202;DHT22;71068;47.662;-2.750;2024-03-06T15:30:51;13.80;79.10
81202;DHT22;71068;47.662;-2.750;2024-03-06T15:33:40;13.70;79.30
81202;DHT22;71068;47.662;-2.750;2024-03-06T15:36:26;13.60;78.90
81202;DHT22;71068;47.662;-2.750;2024-03-06T15:39:12;13.60;79.00
81202;DHT22;71068;47.662;-2.750;2024-03-06T15:41:59;13.60;78.90
81202;DHT22;71068;47.662;-2.750;2024-03-06T15:44:45;13.50;78.80
81202;DHT22;71068;47.662;-2.750;2024-03-06T15:47:32;13.40;78.70
81202;DHT22;71068;47.662;-2.750;2024-03-06T15:50:21;13.50;78.20
81202;DHT22;71068;47.662;-2.750;2024-03-06T15:53:08;13.40;78.20
81202;DHT22;71068;47.662;-2.750;2024-03-06T15:55:54;13.40;78.90
81202;DHT22;71068;47.662;-2.750;2024-03-06T15:58:48;13.40;78.60
81202;DHT22;71068;47.662;-2.750;2024-03-06T16:01:36;13.20;78.70
81202;DHT22;71068;47.662;-2.750;2024-03-06T16:04:22;13.30;79.20
81202;DHT22;71068;47.662;-2.750;2024-03-06T16:07:08;13.10;79.30
81202;DHT22;71068;47.662;-2.750;2024-03-06T16:09:57;13.10;79.30
81202;DHT22;71068;47.662;-2.750;2024-03-06T16:12:44;13.20;79.60
81202;DHT22;71068;47.662;-2.750;2024-03-06T16:15:31;13.20;79.40
81202;DHT22;71068;47.662;-2.750;2024-03-06T16:18:17;13.30;79.60
81202;DHT22;71068;47.662;-2.750;2024-03-06T16:21:06;13.50;79.10
81202;DHT22;71068;47.662;-2.750;2024-03-06T16:23:55;13.30;78.90
81202;DHT22;71068;47.662;-2.750;2024-03-06T16:26:42;13.50;78.90
81202;DHT22;71068;47.662;-2.750;2024-03-06T16:29:29;13.50;78.80
81202;DHT22;71068;47.662;-2.750;2024-03-06T16:32:15;13.50;78.30
81202;DHT22;71068;47.662;-2.750;2024-03-06T16:35:18;13.50;78.30
81202;DHT22;71068;47.662;-2.750;2024-03-06T16:38:09;13.40;78.70
81202;DHT22;71068;47.662;-2.750;2024-03-06T16:41:05;13.40;78.50
81202;DHT22;71068;47.662;-2.750;2024-03-06T16:47:47;13.20;78.40
81202;DHT22;71068;47.662;-2.750;2024-03-06T16:50:36;13.00;79.60
81202;DHT22;71068;47.662;-2.750;2024-03-06T16:53:23;13.00;79.70
81202;DHT22;71068;47.662;-2.750;2024-03-06T16:56:09;13.10;79.50
81202;DHT22;71068;47.662;-2.750;2024-03-06T16:58:57;13.10;79.30
81202;DHT22;71068;47.662;-2.750;2024-03-06T17:01:51;13.20;79.30
81202;DHT22;71068;47.662;-2.750;2024-03-06T17:04:37;13.30;78.90
81202;DHT22;71068;47.662;-2.750;2024-03-06T17:07:23;13.30;78.70
81202;DHT22;71068;47.662;-2.750;2024-03-06T17:10:11;13.30;78.90
81202;DHT22;71068;47.662;-2.750;2024-03-06T17:12:58;13.30;78.40
81202;DHT22;71068;47.662;-2.750;2024-03-06T17:15:45;13.40;78.60
81202;DHT22;71068;47.662;-2.750;2024-03-06T17:18:34;13.20;78.60
81202;DHT22;71068;47.662;-2.750;2024-03-06T17:21:23;13.30;78.90
81202;DHT22;71068;47.662;-2.750;2024-03-06T17:24:09;13.20;78.60
81202;DHT22;71068;47.662;-2.750;2024-03-06T17:26:58;13.20;78.30
81202;DHT22;71068;47.662;-2.750;2024-03-06T17:29:46;13.10;78.40
81202;DHT22;71068;47.662;-2.750;2024-03-06T17:32:35;13.10;78.90
81202;DHT22;71068;47.662;-2.750;2024-03-06T17:35:21;13.10;79.10
81202;DHT22;71068;47.662;-2.750;2024-03-06T17:38:08;13.00;79.30